createdAt,value
2018-02-15T00:02:11.390Z,98151.95
2018-02-15T00:04:38.934Z,98159.34
2018-02-15T00:07:06.497Z,98169.38
2018-02-15T00:09:34.030Z,98173.54
2018-02-15T00:12:01.641Z,98171.61
2018-02-15T00:14:29.161Z,98167.00
2018-02-15T00:16:56.701Z,98164.30
2018-02-15T00:19:24.226Z,98163.43
2018-02-15T00:21:51.752Z,98158.21
2018-02-15T00:24:19.275Z,98140.84
2018-02-15T00:26:46.800Z,98136.86
2018-02-15T00:29:14.441Z,98131.44
2018-02-15T00:31:41.985Z,98137.16
2018-02-15T00:34:09.524Z,98132.95
2018-02-15T00:36:37.054Z,98127.02
2018-02-15T00:39:04.608Z,98128.63
2018-02-15T00:41:32.115Z,98129.56
2018-02-15T00:43:59.622Z,98137.44
2018-02-15T00:46:27.154Z,98130.34
2018-02-15T00:48:54.680Z,98134.98
2018-02-15T00:51:22.200Z,98138.75
2018-02-15T00:53:49.716Z,98142.42
2018-02-15T00:56:17.252Z,98136.06
2018-02-15T00:58:44.787Z,98132.28
2018-02-15T01:01:12.310Z,98134.66
2018-02-15T01:03:39.852Z,98120.56
2018-02-15T01:06:07.485Z,98126.61
2018-02-15T01:08:35.010Z,98115.38
2018-02-15T01:11:02.516Z,98108.98
2018-02-15T01:13:30.055Z,98115.77
2018-02-15T01:15:57.577Z,98119.58
2018-02-15T01:18:25.097Z,98124.95
2018-02-15T01:20:52.620Z,98119.39
2018-02-15T01:23:20.125Z,98123.89
2018-02-15T01:25:47.640Z,98133.51
2018-02-15T01:28:15.161Z,98136.48
2018-02-15T01:30:42.678Z,98139.34
2018-02-15T01:33:10.188Z,98142.52
2018-02-15T01:35:37.713Z,98138.42
2018-02-15T01:38:05.230Z,98120.79
2018-02-15T01:40:32.745Z,98120.61
2018-02-15T01:43:00.261Z,98118.13
2018-02-15T01:45:27.786Z,98123.61
2018-02-15T01:47:55.306Z,98122.35
2018-02-15T01:50:22.847Z,98119.89
2018-02-15T01:52:50.377Z,98116.08
2018-02-15T01:55:17.888Z,98118.58
2018-02-15T01:57:45.400Z,98116.88
2018-02-15T02:00:12.925Z,98113.94
2018-02-15T02:02:40.470Z,98106.18
2018-02-15T02:05:08.012Z,98103.25
2018-02-15T02:07:35.540Z,98097.26
2018-02-15T02:10:03.080Z,98092.54
2018-02-15T02:12:30.612Z,98092.55
2018-02-15T02:14:58.125Z,98088.55
2018-02-15T02:17:25.655Z,98097.82
2018-02-15T02:19:53.171Z,98091.53
2018-02-15T02:22:20.713Z,98097.63
2018-02-15T02:24:48.235Z,98079.61
2018-02-15T02:27:15.776Z,98080.58
2018-02-15T02:29:43.295Z,98071.00
2018-02-15T02:32:10.810Z,98073.37
2018-02-15T02:34:38.340Z,98071.88
2018-02-15T02:37:05.859Z,98079.41
2018-02-15T02:39:33.376Z,98074.45
2018-02-15T02:42:00.992Z,98063.22
2018-02-15T02:44:28.527Z,98054.06
2018-02-15T02:46:56.057Z,98060.38
2018-02-15T02:49:23.596Z,98050.63
2018-02-15T02:51:51.131Z,98055.23
2018-02-15T02:54:18.662Z,98058.09
2018-02-15T02:56:48.046Z,98055.81
2018-02-15T02:59:15.592Z,98049.17
2018-02-15T03:01:43.132Z,98046.20
2018-02-15T03:04:10.671Z,98043.01
2018-02-15T03:06:38.217Z,98038.05
2018-02-15T03:09:05.781Z,98035.36
2018-02-15T03:11:33.317Z,98022.44
2018-02-15T03:14:00.918Z,98021.05
2018-02-15T03:16:28.443Z,98020.45
2018-02-15T03:18:55.971Z,98018.98
2018-02-15T03:21:23.488Z,98019.87
2018-02-15T03:23:51.048Z,98019.70
2018-02-15T03:26:18.585Z,98017.94
2018-02-15T03:28:46.135Z,98013.69
2018-02-15T03:31:13.677Z,98006.50
2018-02-15T03:33:41.200Z,98008.35
2018-02-15T03:36:08.710Z,98006.19
2018-02-15T03:38:36.225Z,98008.73
2018-02-15T03:41:03.767Z,98004.94
2018-02-15T03:43:31.300Z,98011.69
2018-02-15T03:45:58.836Z,98013.60
2018-02-15T03:48:26.397Z,98009.91
2018-02-15T03:50:53.936Z,98006.55
2018-02-15T03:53:21.452Z,97999.77
2018-02-15T03:55:48.990Z,98001.16
2018-02-15T03:58:16.529Z,97994.68
2018-02-15T04:00:44.043Z,97993.68
2018-02-15T04:03:11.570Z,98003.75
2018-02-15T04:05:39.112Z,98003.63
2018-02-15T04:08:06.663Z,97991.98
2018-02-15T04:10:34.188Z,97995.16
2018-02-15T04:13:01.740Z,97996.17
2018-02-15T04:15:29.416Z,97991.27
2018-02-15T04:17:56.930Z,97983.79
2018-02-15T04:20:24.441Z,97974.58
2018-02-15T04:22:51.991Z,97980.64
2018-02-15T04:25:19.517Z,97983.19
2018-02-15T04:27:47.050Z,97985.97
2018-02-15T04:30:14.580Z,97984.03
2018-02-15T04:32:42.111Z,97989.06
2018-02-15T04:35:09.655Z,97982.91
2018-02-15T04:37:37.165Z,97980.05
2018-02-15T04:40:04.755Z,97988.77
2018-02-15T04:42:32.250Z,97983.38
2018-02-15T04:44:59.770Z,97982.59
2018-02-15T04:47:27.283Z,97996.88
2018-02-15T04:49:54.795Z,98002.14
2018-02-15T04:52:22.331Z,98005.64
2018-02-15T04:54:49.860Z,98006.90
2018-02-15T04:57:17.421Z,98014.22
2018-02-15T04:59:44.945Z,98014.72
2018-02-15T05:02:12.486Z,98022.87
2018-02-15T05:04:40.034Z,98019.14
2018-02-15T05:07:07.560Z,98016.19
2018-02-15T05:09:35.097Z,98026.82
2018-02-15T05:12:02.666Z,98024.52
2018-02-15T05:14:30.183Z,98020.13
2018-02-15T05:16:57.712Z,98026.95
2018-02-15T05:19:25.244Z,98026.41
2018-02-15T05:21:52.779Z,98020.74
2018-02-15T05:24:20.327Z,98012.69
2018-02-15T05:26:47.844Z,98015.25
2018-02-15T05:29:15.366Z,98018.48
2018-02-15T05:31:42.887Z,98011.48
2018-02-15T05:34:10.405Z,98015.96
2018-02-15T05:36:37.916Z,98014.77
2018-02-15T05:39:05.536Z,98014.64
2018-02-15T05:41:33.055Z,98012.22
2018-02-15T05:44:00.766Z,98004.66
2018-02-15T05:46:28.300Z,98000.88
2018-02-15T05:48:55.827Z,98010.13
2018-02-15T05:51:23.336Z,98002.22
2018-02-15T05:53:50.856Z,97998.48
2018-02-15T05:56:18.376Z,98001.48
2018-02-15T05:58:45.904Z,98010.64
2018-02-15T06:01:13.430Z,98004.04
2018-02-15T06:03:40.945Z,98009.59
2018-02-15T06:06:08.633Z,98009.67
2018-02-15T06:08:36.171Z,98003.25
2018-02-15T06:11:03.725Z,98009.90
2018-02-15T06:13:31.286Z,98012.37
2018-02-15T06:15:58.838Z,98007.88
2018-02-15T06:18:26.439Z,98013.05
2018-02-15T06:20:54.750Z,98009.02
2018-02-15T06:23:22.341Z,98008.05
2018-02-15T06:25:49.886Z,98011.69
2018-02-15T06:28:17.466Z,98008.22
2018-02-15T06:30:45.241Z,98014.99
2018-02-15T06:33:12.817Z,98012.09
2018-02-15T06:35:40.398Z,98011.99
2018-02-15T06:38:07.961Z,98016.88
2018-02-15T06:40:35.556Z,98018.82
2018-02-15T06:43:03.111Z,98019.73
2018-02-15T06:45:30.692Z,98021.73
2018-02-15T06:47:58.246Z,98031.05
2018-02-15T06:50:25.801Z,98026.55
2018-02-15T06:52:53.343Z,98031.11
2018-02-15T06:55:20.892Z,98031.02
2018-02-15T06:57:48.522Z,98036.17
2018-02-15T07:00:16.096Z,98029.67
2018-02-15T07:02:43.652Z,98041.38
2018-02-15T07:05:11.201Z,98038.27
2018-02-15T07:07:38.766Z,98037.63
2018-02-15T07:10:06.334Z,98037.29
2018-02-15T07:12:34.031Z,98039.36
2018-02-15T07:15:01.606Z,98045.66
2018-02-15T07:17:29.192Z,98047.62
2018-02-15T07:19:56.748Z,98043.36
2018-02-15T07:22:24.331Z,98040.28
2018-02-15T07:24:51.903Z,98037.49
2018-02-15T07:27:19.457Z,98039.41
2018-02-15T07:29:47.016Z,98042.27
2018-02-15T07:32:14.597Z,98046.27
2018-02-15T07:34:42.152Z,98048.61
2018-02-15T07:37:09.746Z,98053.06
2018-02-15T07:39:37.327Z,98051.40
2018-02-15T07:42:05.438Z,98053.88
2018-02-15T07:44:33.007Z,98047.66
2018-02-15T07:47:00.745Z,98048.95
2018-02-15T07:49:28.374Z,98052.46
2018-02-15T07:51:55.937Z,98055.47
2018-02-15T07:54:23.518Z,98054.19
2018-02-15T07:56:51.303Z,98053.60
2018-02-15T07:59:18.901Z,98051.77
2018-02-15T08:01:46.465Z,98052.86
2018-02-15T08:04:14.026Z,98048.19
2018-02-15T08:06:41.600Z,98046.52
2018-02-15T08:09:09.231Z,98045.66
2018-02-15T08:11:36.807Z,98048.24
2018-02-15T08:14:04.357Z,98046.13
2018-02-15T08:16:31.948Z,98037.27
2018-02-15T08:18:59.522Z,98038.41
2018-02-15T08:21:27.082Z,98037.20
2018-02-15T08:23:54.675Z,98039.22
2018-02-15T08:26:22.378Z,98046.73
2018-02-15T08:28:49.947Z,98047.52
2018-02-15T08:31:17.513Z,98048.64
2018-02-15T08:33:45.096Z,98048.27
2018-02-15T08:36:12.656Z,98056.58
2018-02-15T08:38:40.201Z,98061.09
2018-02-15T08:41:07.857Z,98060.23
2018-02-15T08:43:35.443Z,98066.97
2018-02-15T08:46:03.021Z,98064.78
2018-02-15T08:48:30.807Z,98069.58
2018-02-15T08:50:58.443Z,98068.32
2018-02-15T08:53:26.037Z,98060.64
2018-02-15T08:55:53.613Z,98067.50
2018-02-15T08:58:21.211Z,98068.09
2018-02-15T09:00:48.780Z,98065.52
2018-02-15T09:03:16.413Z,98068.55
2018-02-15T09:05:43.977Z,98057.58
2018-02-15T09:08:11.611Z,98052.30
2018-02-15T09:10:39.183Z,98057.11
2018-02-15T09:13:06.767Z,98055.31
2018-02-15T09:15:34.335Z,98056.09
2018-02-15T09:18:02.247Z,98050.46
2018-02-15T09:20:29.822Z,98047.89
2018-02-15T09:22:57.391Z,98051.20
2018-02-15T09:25:24.970Z,98044.03
2018-02-15T09:27:52.561Z,98038.39
2018-02-15T09:30:20.168Z,98025.05
2018-02-15T09:32:47.828Z,98023.91
2018-02-15T09:35:15.395Z,98011.83
2018-02-15T09:37:42.990Z,98016.94
2018-02-15T09:40:10.542Z,98017.44
2018-02-15T09:42:38.113Z,98013.91
2018-02-15T09:45:05.675Z,98014.39
2018-02-15T09:47:33.298Z,98015.34
2018-02-15T09:50:00.868Z,98022.49
2018-02-15T09:52:28.468Z,98016.74
2018-02-15T09:54:56.096Z,98019.58
2018-02-15T09:57:25.923Z,98011.44
2018-02-15T09:59:53.511Z,98009.58
2018-02-15T10:02:22.057Z,98007.41
2018-02-15T10:04:49.726Z,98005.84
2018-02-15T10:07:17.300Z,98018.23
2018-02-15T10:09:44.948Z,98014.23
2018-02-15T10:12:12.512Z,98013.41
2018-02-15T10:28:09.194Z,97995.83
2018-02-15T10:40:45.237Z,97993.92
2018-02-15T10:43:12.890Z,97990.92
2018-02-15T10:45:40.562Z,97995.87
2018-02-15T10:48:08.258Z,98000.55
2018-02-15T10:50:36.109Z,97994.62
2018-02-15T10:53:03.771Z,97995.69
2018-02-15T10:55:31.467Z,97992.28
2018-02-15T10:57:59.098Z,97985.22
2018-02-15T11:00:32.573Z,97983.38
2018-02-15T11:03:05.881Z,97986.47
2018-02-15T11:05:34.462Z,97976.27
2018-02-15T11:08:02.237Z,97976.51
2018-02-15T11:10:29.896Z,97975.72
2018-02-15T11:12:57.721Z,97975.20
2018-02-15T11:15:25.837Z,97973.50
2018-02-15T11:17:53.557Z,97972.61
2018-02-15T11:20:21.211Z,97973.61
2018-02-15T11:22:48.857Z,97974.14
2018-02-15T11:25:16.501Z,97963.81
2018-02-15T11:27:44.067Z,97970.06
2018-02-15T11:30:11.635Z,97972.08
2018-02-15T11:32:39.202Z,97961.41
2018-02-15T11:35:06.986Z,97975.76
2018-02-15T11:37:34.563Z,97975.61
2018-02-15T11:40:04.056Z,97983.02
2018-02-15T11:42:31.761Z,97986.31
2018-02-15T11:44:59.596Z,97980.55
2018-02-15T11:47:27.784Z,97984.50
2018-02-15T11:49:56.052Z,97981.42
2018-02-15T11:52:23.838Z,97983.09
2018-02-15T11:54:51.536Z,97984.98
2018-02-15T11:57:19.306Z,97987.22
2018-02-15T11:59:46.918Z,97993.52
2018-02-15T12:02:14.591Z,97997.07
2018-02-15T12:04:42.236Z,98001.73
2018-02-15T12:07:09.900Z,98005.80
2018-02-15T12:09:37.686Z,98006.09
2018-02-15T12:12:05.335Z,98011.84
2018-02-15T12:14:33.327Z,98010.65
2018-02-15T12:17:01.263Z,98010.05
2018-02-15T12:19:29.526Z,98015.09
2018-02-15T12:21:57.432Z,98014.50
2018-02-15T12:24:25.535Z,98005.88
2018-02-15T12:26:53.578Z,98011.77
2018-02-15T12:29:21.301Z,98013.59
2018-02-15T12:31:49.070Z,98014.14
2018-02-15T12:34:16.880Z,98007.08
2018-02-15T12:36:44.542Z,98012.43
2018-02-15T12:39:12.113Z,98012.16
2018-02-15T12:44:41.579Z,98017.18
2018-02-15T12:47:09.393Z,98011.19
2018-02-15T12:49:37.222Z,98012.44
2018-02-15T12:52:05.377Z,98018.05
2018-02-15T12:54:33.208Z,98012.65
2018-02-15T12:57:00.973Z,98012.84
2018-02-15T12:59:28.725Z,98003.91
2018-02-15T13:01:56.297Z,98002.09
2018-02-15T13:04:24.013Z,98013.28
2018-02-15T13:06:51.707Z,98015.83
2018-02-15T13:09:19.296Z,98008.92
2018-02-15T13:11:47.098Z,98005.20
2018-02-15T13:14:14.676Z,98006.34
2018-02-15T13:17:00.203Z,98010.17
2018-02-15T13:22:42.051Z,98004.71
2018-02-15T13:25:09.653Z,97995.45
2018-02-15T13:27:49.192Z,97993.92
2018-02-15T13:30:16.956Z,97996.20
2018-02-15T13:32:44.762Z,98003.17
2018-02-15T13:35:12.379Z,98002.55
2018-02-15T13:37:40.208Z,98006.97
2018-02-15T13:40:07.917Z,98011.79
2018-02-15T13:42:35.713Z,98003.02
2018-02-15T13:45:03.467Z,98009.29
2018-02-15T13:47:31.048Z,98011.38
2018-02-15T13:49:59.507Z,98011.66
2018-02-15T13:52:28.274Z,98007.78
2018-02-15T13:54:55.986Z,98006.83
2018-02-15T13:57:23.696Z,98012.82
2018-02-15T13:59:51.608Z,98017.56
2018-02-15T14:02:19.362Z,98011.87
2018-02-15T14:04:46.972Z,98016.44
2018-02-15T14:07:15.537Z,98025.80
2018-02-15T14:09:43.216Z,98025.66
2018-02-15T14:12:11.173Z,98014.07
2018-02-15T14:14:38.758Z,98018.58
2018-02-15T14:17:06.496Z,98016.37
2018-02-15T14:19:34.062Z,98009.81
2018-02-15T14:22:01.808Z,98014.41
2018-02-15T14:24:29.506Z,98017.41
2018-02-15T14:26:57.323Z,98020.25
2018-02-15T14:29:24.989Z,98016.05
2018-02-15T14:31:52.587Z,98012.23
2018-02-15T14:34:20.536Z,98016.01
2018-02-15T14:36:48.106Z,98021.27
2018-02-15T14:39:15.803Z,98021.79
2018-02-15T14:41:43.598Z,98020.72
2018-02-15T14:44:11.243Z,98016.74
2018-02-15T14:46:38.923Z,98028.88
2018-02-15T14:49:06.651Z,98030.32
2018-02-15T14:51:34.518Z,98031.11
2018-02-15T14:54:02.857Z,98028.47
2018-02-15T14:56:30.477Z,98032.45
2018-02-15T14:58:59.037Z,98036.84
2018-02-15T15:01:26.609Z,98043.48
2018-02-15T15:03:54.261Z,98037.05
2018-02-15T15:06:21.856Z,98034.17
2018-02-15T15:08:49.488Z,98046.16
2018-02-15T15:11:17.136Z,98044.22
2018-02-15T15:13:44.927Z,98049.32
2018-02-15T15:16:12.558Z,98048.94
2018-02-15T15:18:40.271Z,98052.23
2018-02-15T15:21:08.061Z,98056.69
2018-02-15T15:23:36.142Z,98056.34
2018-02-15T15:26:03.841Z,98063.59
2018-02-15T15:28:31.467Z,98071.23
2018-02-15T15:30:59.197Z,98066.58
2018-02-15T15:33:26.958Z,98070.90
2018-02-15T15:35:54.610Z,98072.58
2018-02-15T15:38:22.281Z,98062.89
2018-02-15T15:40:49.986Z,98064.54
2018-02-15T15:43:17.737Z,98074.84
2018-02-15T15:45:45.476Z,98074.34
2018-02-15T15:48:13.068Z,98083.98
2018-02-15T15:50:40.832Z,98081.85
2018-02-15T15:53:08.447Z,98082.35
2018-02-15T15:55:36.179Z,98085.17
2018-02-15T15:58:03.971Z,98086.09
2018-02-15T16:00:31.678Z,98083.74
2018-02-15T16:02:59.407Z,98091.59
2018-02-15T16:05:27.188Z,98093.48
2018-02-15T16:07:55.049Z,98086.05
2018-02-15T16:10:22.851Z,98083.32
2018-02-15T16:12:50.447Z,98090.31
2018-02-15T16:15:18.728Z,98088.20
2018-02-15T16:17:46.407Z,98087.56
2018-02-15T16:20:14.038Z,98084.02
2018-02-15T16:22:41.857Z,98085.09
2018-02-15T16:25:09.467Z,98087.38
2018-02-15T16:27:37.053Z,98087.59
2018-02-15T16:30:04.638Z,98084.54
2018-02-15T16:32:32.217Z,98085.23
2018-02-15T16:34:59.781Z,98093.34
2018-02-15T16:37:27.935Z,98092.80
2018-02-15T16:39:55.686Z,98095.74
2018-02-15T16:42:23.299Z,98094.39
2018-02-15T16:44:51.016Z,98102.06
2018-02-15T16:47:18.742Z,98109.36
2018-02-15T16:49:46.512Z,98106.04
2018-02-15T16:52:15.018Z,98108.72
2018-02-15T16:54:42.716Z,98113.68
2018-02-15T16:57:10.480Z,98113.84
2018-02-15T16:59:38.217Z,98113.26
2018-02-15T17:02:06.113Z,98110.55
2018-02-15T17:04:34.777Z,98117.53
2018-02-15T17:07:02.593Z,98122.88
2018-02-15T17:09:30.301Z,98130.68
2018-02-15T17:11:57.907Z,98130.02
2018-02-15T17:14:25.912Z,98124.22
2018-02-15T17:17:24.836Z,98124.48
2018-02-15T17:19:52.483Z,98124.52
2018-02-15T17:22:20.217Z,98124.08
2018-02-15T17:24:48.036Z,98127.15
2018-02-15T17:27:15.871Z,98125.34
2018-02-15T17:29:44.253Z,98127.86
2018-02-15T17:32:11.882Z,98132.09
2018-02-15T17:34:39.583Z,98129.38
2018-02-15T17:37:07.321Z,98133.80
2018-02-15T17:39:35.193Z,98132.86
2018-02-15T17:42:02.798Z,98124.29
2018-02-15T17:44:31.873Z,98118.75
2018-02-15T17:46:59.808Z,98118.09
2018-02-15T17:49:28.787Z,98115.69
2018-02-15T17:54:38.607Z,98126.55
2018-02-15T18:00:27.163Z,98128.46
2018-02-15T18:02:55.408Z,98133.06
2018-02-15T18:05:23.021Z,98137.06
2018-02-15T18:07:50.729Z,98137.51
2018-02-15T18:10:18.403Z,98138.84
2018-02-15T18:12:46.291Z,98139.44
2018-02-15T18:15:13.973Z,98145.45
2018-02-15T18:17:41.708Z,98141.21
2018-02-15T18:20:09.573Z,98145.85
2018-02-15T18:22:37.754Z,98140.02
2018-02-15T18:25:05.520Z,98139.09
2018-02-15T18:27:35.209Z,98143.51
2018-02-15T18:30:03.057Z,98145.07
2018-02-15T18:32:30.851Z,98143.93
2018-02-15T18:35:06.208Z,98150.27
2018-02-15T18:37:34.157Z,98149.86
2018-02-15T18:40:01.862Z,98142.66
2018-02-15T18:42:29.456Z,98147.30
2018-02-15T18:44:57.128Z,98150.63
2018-02-15T18:47:24.808Z,98150.55
2018-02-15T18:49:52.492Z,98152.33
2018-02-15T18:52:20.970Z,98158.65
2018-02-15T18:54:49.222Z,98156.16
2018-02-15T18:57:17.084Z,98152.40
2018-02-15T18:59:44.809Z,98152.19
2018-02-15T19:02:12.512Z,98150.63
2018-02-15T19:04:40.603Z,98151.55
2018-02-15T19:07:08.223Z,98149.73
2018-02-15T19:09:36.007Z,98155.04
2018-02-15T19:12:03.691Z,98146.17
2018-02-15T19:14:31.288Z,98144.59
2018-02-15T19:16:58.914Z,98147.67
2018-02-15T19:19:26.740Z,98145.00
2018-02-15T19:21:54.900Z,98143.19
2018-02-15T19:24:22.673Z,98143.98
2018-02-15T19:26:51.765Z,98145.28
2018-02-15T19:29:19.892Z,98143.92
2018-02-15T19:31:47.665Z,98146.80
2018-02-15T19:34:15.372Z,98147.44
2018-02-15T19:36:43.691Z,98152.27
2018-02-15T19:39:11.340Z,98153.59
2018-02-15T19:41:39.012Z,98154.91
2018-02-15T19:44:06.678Z,98156.87
2018-02-15T19:46:34.688Z,98157.76
2018-02-15T19:49:03.052Z,98148.02
2018-02-15T19:51:31.038Z,98148.72
2018-02-15T19:53:58.971Z,98142.58
2018-02-15T19:56:27.086Z,98146.96
2018-02-15T19:58:55.974Z,98146.29
2018-02-15T20:01:24.669Z,98147.36
2018-02-15T20:03:52.347Z,98143.17
2018-02-15T20:06:21.125Z,98142.70
2018-02-15T20:08:49.026Z,98145.81
2018-02-15T20:11:16.931Z,98143.41
2018-02-15T20:13:44.633Z,98153.23
2018-02-15T20:16:12.587Z,98147.05
2018-02-15T20:18:40.185Z,98147.47
2018-02-15T20:21:08.045Z,98148.00
2018-02-15T20:23:35.639Z,98150.88
2018-02-15T20:26:08.842Z,98153.86
2018-02-15T20:28:36.743Z,98152.37
2018-02-15T20:31:05.042Z,98150.51
2018-02-15T20:33:32.802Z,98146.97
2018-02-15T20:36:00.567Z,98141.07
2018-02-15T20:38:33.821Z,98144.94
2018-02-15T20:41:01.823Z,98142.88
2018-02-15T20:43:29.594Z,98138.80
2018-02-15T20:45:57.363Z,98138.43
2018-02-15T20:48:25.001Z,98139.62
2018-02-15T20:50:58.486Z,98135.98
2018-02-15T20:56:28.594Z,98143.17
2018-02-15T20:58:56.322Z,98143.88
2018-02-15T21:01:24.029Z,98144.69
2018-02-15T21:03:51.797Z,98153.62
2018-02-15T21:06:19.622Z,98156.18
2018-02-15T21:12:18.142Z,98184.19
2018-02-15T21:14:46.014Z,98180.66
2018-02-15T21:17:15.005Z,98181.16
2018-02-15T21:19:42.936Z,98182.17
2018-02-15T21:22:10.734Z,98184.21
2018-02-15T21:24:38.731Z,98186.64
2018-02-15T21:27:07.062Z,98178.97
2018-02-15T21:29:35.037Z,98172.00
2018-02-15T21:32:02.721Z,98175.23
2018-02-15T21:34:30.428Z,98185.52
2018-02-15T21:36:58.141Z,98175.00
2018-02-15T21:39:26.237Z,98188.85
2018-02-15T21:41:53.986Z,98187.55
2018-02-15T21:44:21.843Z,98186.58
2018-02-15T21:46:49.557Z,98187.15
2018-02-15T21:49:17.193Z,98181.86
2018-02-15T21:51:44.823Z,98171.66
2018-02-15T21:54:13.254Z,98181.69
2018-02-15T21:56:40.896Z,98186.51
2018-02-15T21:59:08.821Z,98186.52
2018-02-15T22:01:36.613Z,98187.85
2018-02-15T22:04:04.367Z,98191.56
2018-02-15T22:06:32.242Z,98195.31
2018-02-15T22:09:00.018Z,98194.90
2018-02-15T22:11:28.148Z,98196.94
2018-02-15T22:13:55.915Z,98199.42
2018-02-15T22:16:23.892Z,98203.95
2018-02-15T22:18:51.807Z,98195.78
2018-02-15T22:21:19.582Z,98208.66
2018-02-15T22:23:47.433Z,98211.22
2018-02-15T22:26:15.210Z,98219.77
2018-02-15T22:28:43.241Z,98222.59
2018-02-15T22:31:11.303Z,98228.09
2018-02-15T22:33:39.024Z,98225.22
2018-02-15T22:36:07.186Z,98234.58
2018-02-15T22:38:34.986Z,98240.71
2018-02-15T22:41:02.602Z,98237.10
2018-02-15T22:43:30.128Z,98240.89
2018-02-15T22:45:57.758Z,98243.97
2018-02-15T22:48:25.307Z,98245.87
2018-02-15T22:50:52.831Z,98247.42
2018-02-15T22:53:20.383Z,98251.72
2018-02-15T22:55:48.028Z,98257.70
2018-02-15T22:58:15.621Z,98252.77
2018-02-15T23:00:44.412Z,98251.77
2018-02-15T23:03:12.035Z,98248.83
2018-02-15T23:05:39.568Z,98254.18
2018-02-15T23:08:07.221Z,98262.13
2018-02-15T23:10:36.952Z,98258.22
2018-02-15T23:13:04.742Z,98263.27
2018-02-15T23:15:32.408Z,98270.33
2018-02-15T23:18:00.348Z,98268.88
2018-02-15T23:20:27.985Z,98265.84
2018-02-15T23:22:56.307Z,98263.28
2018-02-15T23:25:23.947Z,98268.43
2018-02-15T23:27:52.383Z,98274.45
2018-02-15T23:30:19.933Z,98274.56
2018-02-15T23:32:47.446Z,98283.99
2018-02-15T23:35:15.227Z,98286.44
2018-02-15T23:37:42.886Z,98294.39
2018-02-15T23:40:10.662Z,98300.26
2018-02-15T23:42:38.266Z,98300.67
2018-02-15T23:45:05.948Z,98310.80
2018-02-15T23:47:33.615Z,98316.89
2018-02-15T23:50:01.352Z,98313.41
2018-02-15T23:52:28.987Z,98326.43
2018-02-15T23:54:56.762Z,98340.88
2018-02-15T23:57:24.496Z,98345.26
2018-02-15T23:59:52.246Z,98348.90
